createdAt,value
2022-09-10T00:01:31.234Z,100626.13
2022-09-10T00:03:59.360Z,100635.00
2022-09-10T00:06:27.781Z,100620.41
2022-09-10T00:09:00.387Z,100620.28
2022-09-10T00:11:32.339Z,100618.41
2022-09-10T00:14:00.546Z,100614.69
2022-09-10T00:16:29.442Z,100614.69
2022-09-10T00:19:00.118Z,100619.13
2022-09-10T00:21:28.371Z,100606.53
2022-09-10T00:23:55.116Z,100605.56
2022-09-10T00:26:29.572Z,100614.69
2022-09-10T00:29:01.667Z,100610.13
2022-09-10T00:31:30.697Z,100612.13
2022-09-10T00:34:00.467Z,100608.25
2022-09-10T00:36:36.303Z,100597.25
2022-09-10T00:39:08.423Z,100605.28
2022-09-10T00:41:39.231Z,100608.72
2022-09-10T00:44:40.053Z,100604.97
2022-09-10T00:47:21.863Z,100605.28
2022-09-10T00:50:01.028Z,100605.28
2022-09-10T00:52:29.350Z,100600.69
2022-09-10T00:54:57.537Z,100611.56
2022-09-10T00:57:29.123Z,100607.84
2022-09-10T01:00:06.225Z,100597.84
2022-09-10T01:02:33.256Z,100613.28
2022-09-10T01:05:02.616Z,100606.97
2022-09-10T01:07:33.051Z,100614.16
2022-09-10T01:10:06.687Z,100609.69
2022-09-10T01:13:03.852Z,100613.28
2022-09-10T01:15:35.799Z,100608.00
2022-09-10T01:18:08.603Z,100610.97
2022-09-10T01:21:12.988Z,100615.41
2022-09-10T01:24:07.579Z,100618.13
2022-09-10T01:26:59.020Z,100610.97
2022-09-10T01:29:50.000Z,100614.41
2022-09-10T01:33:04.053Z,100621.59
2022-09-10T01:35:56.831Z,100619.84
2022-09-10T01:38:31.726Z,100621.59
2022-09-10T01:40:59.666Z,100613.56
2022-09-10T01:43:31.353Z,100614.56
2022-09-10T01:46:50.124Z,100624.44
2022-09-10T01:49:37.529Z,100614.41
2022-09-10T01:52:42.248Z,100623.56
2022-09-10T01:55:33.739Z,100618.41
2022-09-10T01:58:09.847Z,100623.28
2022-09-10T02:01:02.268Z,100617.97
2022-09-10T02:03:31.477Z,100615.53
2022-09-10T02:06:00.525Z,100613.81
2022-09-10T02:08:33.918Z,100614.81
2022-09-10T02:11:06.344Z,100613.19
2022-09-10T02:13:36.735Z,100614.31
2022-09-10T02:16:24.723Z,100611.91
2022-09-10T02:18:51.703Z,100610.88
2022-09-10T02:21:19.183Z,100614.63
2022-09-10T02:24:05.811Z,100613.91
2022-09-10T02:26:40.130Z,100612.28
2022-09-10T02:29:09.304Z,100608.72
2022-09-10T02:31:38.517Z,100600.56
2022-09-10T02:34:05.495Z,100604.00
2022-09-10T02:36:33.354Z,100594.88
2022-09-10T02:39:03.760Z,100590.28
2022-09-10T02:41:33.999Z,100592.28
2022-09-10T02:44:03.845Z,100592.16
2022-09-10T02:46:31.117Z,100591.13
2022-09-10T02:48:58.927Z,100598.31
2022-09-10T02:51:27.156Z,100596.31
2022-09-10T02:53:55.715Z,100593.31
2022-09-10T02:56:23.763Z,100594.03
2022-09-10T02:58:51.393Z,100603.94
2022-09-10T03:01:22.671Z,100600.09
2022-09-10T03:03:58.292Z,100594.78
2022-09-10T03:06:27.258Z,100602.06
2022-09-10T03:08:55.402Z,100603.66
2022-09-10T03:11:27.398Z,100609.94
2022-09-10T03:13:55.488Z,100597.22
2022-09-10T03:16:24.227Z,100604.38
2022-09-10T03:18:52.241Z,100601.53
2022-09-10T03:21:25.163Z,100599.66
2022-09-10T03:23:56.793Z,100592.09
2022-09-10T03:26:26.870Z,100588.53
2022-09-10T03:28:54.795Z,100601.81
2022-09-10T03:31:25.018Z,100596.38
2022-09-10T03:33:51.906Z,100604.41
2022-09-10T03:36:20.944Z,100588.97
2022-09-10T03:38:49.751Z,100590.94
2022-09-10T03:41:16.589Z,100601.81
2022-09-10T03:43:43.601Z,100590.94
2022-09-10T03:46:12.164Z,100588.22
2022-09-10T03:48:43.674Z,100583.81
2022-09-10T03:51:11.120Z,100587.25
2022-09-10T03:53:39.504Z,100587.25
2022-09-10T03:56:08.459Z,100580.06
2022-09-10T03:58:35.871Z,100581.81
2022-09-10T04:01:04.682Z,100589.81
2022-09-10T04:03:35.028Z,100581.81
2022-09-10T04:06:01.839Z,100581.81
2022-09-10T04:08:28.622Z,100581.81
2022-09-10T04:10:56.998Z,100580.06
2022-09-10T04:13:25.018Z,100576.38
2022-09-10T04:15:53.261Z,100579.09
2022-09-10T04:18:21.058Z,100576.22
2022-09-10T04:20:48.565Z,100576.38
2022-09-10T04:23:16.622Z,100573.50
2022-09-10T04:25:44.546Z,100577.94
2022-09-10T04:28:11.596Z,100579.78
2022-09-10T04:30:40.285Z,100574.38
2022-09-10T04:33:07.809Z,100588.66
2022-09-10T04:35:34.892Z,100581.53
2022-09-10T04:38:04.573Z,100576.09
2022-09-10T04:40:31.610Z,100573.50
2022-09-10T04:42:58.585Z,100578.09
2022-09-10T04:45:25.856Z,100585.22
2022-09-10T04:47:54.240Z,100583.22
2022-09-10T04:50:21.925Z,100588.66
2022-09-10T04:53:19.002Z,100584.97
2022-09-10T04:55:49.762Z,100586.66
2022-09-10T04:58:16.660Z,100588.53
2022-09-10T05:00:45.232Z,100596.56
2022-09-10T05:03:13.186Z,100591.13
2022-09-10T05:05:42.788Z,100591.84
2022-09-10T05:08:10.128Z,100590.13
2022-09-10T05:10:38.306Z,100590.97
2022-09-10T05:13:07.965Z,100585.53
2022-09-10T05:15:35.785Z,100584.69
2022-09-10T05:18:04.596Z,100577.53
2022-09-10T05:20:35.778Z,100572.94
2022-09-10T05:23:04.154Z,100578.25
2022-09-10T05:25:31.205Z,100583.53
2022-09-10T05:28:01.096Z,100580.69
2022-09-10T05:30:32.606Z,100589.84
2022-09-10T05:33:01.538Z,100584.38
2022-09-10T05:35:30.344Z,100582.53
2022-09-10T05:38:01.710Z,100586.84
2022-09-10T05:40:31.127Z,100583.28
2022-09-10T05:42:58.399Z,100584.97
2022-09-10T05:45:25.791Z,100580.69
2022-09-10T05:47:53.037Z,100573.25
2022-09-10T05:50:22.947Z,100583.09
2022-09-10T05:52:50.600Z,100581.41
2022-09-10T05:55:18.207Z,100578.69
2022-09-10T05:57:46.762Z,100578.69
2022-09-10T06:00:16.910Z,100587.56
2022-09-10T06:02:57.356Z,100587.56
2022-09-10T06:05:29.134Z,100595.72
2022-09-10T06:07:56.692Z,100598.16
2022-09-10T06:10:23.865Z,100596.16
2022-09-10T06:12:52.141Z,100592.41
2022-09-10T06:15:21.213Z,100590.72
2022-09-10T06:17:50.003Z,100593.31
2022-09-10T06:20:17.773Z,100588.72
2022-09-10T06:22:46.074Z,100584.13
2022-09-10T06:25:13.009Z,100584.84
2022-09-10T06:27:41.391Z,100592.84
2022-09-10T06:30:08.814Z,100592.16
2022-09-10T06:32:39.303Z,100593.56
2022-09-10T06:35:09.285Z,100595.03
2022-09-10T06:37:37.356Z,100594.72
2022-09-10T06:40:07.576Z,100597.44
2022-09-10T06:42:35.091Z,100600.16
2022-09-10T06:45:14.235Z,100598.16
2022-09-10T06:48:34.729Z,100608.75
2022-09-10T06:50:59.351Z,100604.03
2022-09-10T06:53:33.613Z,100613.22
2022-09-10T06:56:05.555Z,100613.22
2022-09-10T06:58:35.257Z,100614.06
2022-09-10T07:01:15.823Z,100613.94
2022-09-10T07:03:47.602Z,100611.34
2022-09-10T07:06:18.178Z,100608.50
2022-09-10T07:08:48.046Z,100612.91
2022-09-10T07:11:16.390Z,100611.94
2022-09-10T07:13:44.618Z,100619.94
2022-09-10T07:16:11.787Z,100615.38
2022-09-10T07:18:38.935Z,100616.06
2022-09-10T07:21:12.503Z,100618.66
2022-09-10T07:23:44.643Z,100616.25
2022-09-10T07:26:19.639Z,100617.53
2022-09-10T07:28:52.209Z,100620.50
2022-09-10T07:31:24.779Z,100620.22
2022-09-10T07:33:52.831Z,100620.81
2022-09-10T07:36:19.814Z,100619.78
2022-09-10T07:38:54.228Z,100615.09
2022-09-10T07:41:22.268Z,100620.22
2022-09-10T07:43:54.795Z,100630.97
2022-09-10T07:46:27.941Z,100621.09
2022-09-10T07:49:01.277Z,100633.69
2022-09-10T07:51:30.270Z,100632.00
2022-09-10T07:53:59.934Z,100625.09
2022-09-10T07:56:37.861Z,100633.56
2022-09-10T07:59:07.081Z,100628.41
2022-09-10T08:01:44.645Z,100634.69
2022-09-10T08:04:11.996Z,100631.69
2022-09-10T08:06:39.710Z,100634.28
2022-09-10T08:09:09.799Z,100639.41
2022-09-10T08:11:41.968Z,100646.59
2022-09-10T08:14:13.298Z,100646.59
2022-09-10T08:16:44.294Z,100655.47
2022-09-10T08:19:15.063Z,100652.31
2022-09-10T08:21:42.139Z,100649.16
2022-09-10T08:24:10.823Z,100660.47
2022-09-10T08:26:41.339Z,100662.38
2022-09-10T08:29:08.397Z,100669.81
2022-09-10T08:31:36.980Z,100668.47
2022-09-10T08:34:14.773Z,100675.19
2022-09-10T08:36:46.691Z,100678.63
2022-09-10T08:39:14.209Z,100684.63
2022-09-10T08:41:54.018Z,100688.97
2022-09-10T08:44:31.195Z,100692.38
2022-09-10T08:47:19.927Z,100690.66
2022-09-10T08:50:36.168Z,100697.47
2022-09-10T08:53:45.690Z,100692.88
2022-09-10T08:56:20.938Z,100695.47
2022-09-10T08:58:54.499Z,100693.44
2022-09-10T09:01:36.912Z,100699.78
2022-09-10T09:04:19.343Z,100698.59
2022-09-10T09:06:56.628Z,100710.63
2022-09-10T09:09:24.439Z,100709.47
2022-09-10T09:12:26.425Z,100704.56
2022-09-10T09:15:13.791Z,100708.00
2022-09-10T09:18:13.037Z,100716.19
2022-09-10T09:20:56.875Z,100710.00
2022-09-10T09:24:02.858Z,100708.84
2022-09-10T09:26:46.561Z,100716.03
2022-09-10T09:29:24.743Z,100713.13
2022-09-10T09:31:59.729Z,100712.75
2022-09-10T09:34:41.765Z,100716.75
2022-09-10T09:37:21.383Z,100712.94
2022-09-10T09:40:05.130Z,100711.88
2022-09-10T09:43:24.017Z,100703.63
2022-09-10T09:45:53.837Z,100702.97
2022-09-10T09:48:22.752Z,100715.47
2022-09-10T09:50:57.224Z,100721.63
2022-09-10T09:53:27.597Z,100720.25
2022-09-10T09:55:58.965Z,100724.59
2022-09-10T09:58:26.447Z,100733.88
2022-09-10T10:01:05.662Z,100725.63
2022-09-10T10:03:52.339Z,100726.56
2022-09-10T10:06:31.003Z,100719.97
2022-09-10T10:09:29.536Z,100724.31
2022-09-10T10:12:00.204Z,100721.31
2022-09-10T10:14:52.399Z,100717.66
2022-09-10T10:17:31.537Z,100722.06
2022-09-10T10:20:14.847Z,100729.00
2022-09-10T10:22:45.421Z,100725.19
2022-09-10T10:25:38.174Z,100724.28
2022-09-10T10:28:25.518Z,100725.16
2022-09-10T10:31:00.727Z,100730.38
2022-09-10T10:33:33.438Z,100733.03
2022-09-10T10:36:21.840Z,100739.06
2022-09-10T10:39:24.399Z,100728.78
2022-09-10T10:42:04.342Z,100726.97
2022-09-10T10:45:15.319Z,100732.00
2022-09-10T10:48:03.138Z,100729.34
2022-09-10T10:51:01.849Z,100726.34
2022-09-10T10:54:34.366Z,100714.56
2022-09-10T10:57:17.704Z,100727.09
2022-09-10T11:00:07.550Z,100740.19
2022-09-10T11:03:01.506Z,100741.63
2022-09-10T11:05:41.396Z,100742.94
2022-09-10T11:08:38.680Z,100757.03
2022-09-10T11:11:22.752Z,100762.91
2022-09-10T11:13:57.721Z,100766.94
2022-09-10T11:16:49.560Z,100771.69
2022-09-10T11:19:35.607Z,100767.53
2022-09-10T11:22:22.759Z,100764.81
2022-09-10T11:25:16.566Z,100772.66
2022-09-10T11:27:52.137Z,100772.38
2022-09-10T11:30:19.314Z,100771.38
2022-09-10T11:33:18.628Z,100773.66
2022-09-10T11:36:03.673Z,100776.97
2022-09-10T11:38:44.460Z,100767.47
2022-09-10T11:41:24.105Z,100769.63
2022-09-10T11:44:18.292Z,100778.91
2022-09-10T11:47:01.069Z,100773.72
2022-09-10T11:49:49.334Z,100782.94
2022-09-10T11:52:18.803Z,100778.88
2022-09-10T11:54:48.805Z,100781.00
2022-09-10T11:57:37.062Z,100782.53
2022-09-10T12:00:19.858Z,100767.97
2022-09-10T12:03:21.761Z,100756.56
2022-09-10T12:06:06.711Z,100751.19
2022-09-10T12:08:41.887Z,100753.38
2022-09-10T12:11:48.430Z,100754.06
2022-09-10T12:14:19.671Z,100770.81
2022-09-10T12:16:56.417Z,100781.81
2022-09-10T12:19:29.241Z,100778.63
2022-09-10T12:22:03.939Z,100767.88
2022-09-10T12:24:37.742Z,100775.03
2022-09-10T12:27:07.822Z,100781.59
2022-09-10T12:29:43.041Z,100788.28
2022-09-10T12:32:26.629Z,100785.44
2022-09-10T12:35:31.693Z,100787.81
2022-09-10T12:38:45.582Z,100787.81
2022-09-10T12:41:32.551Z,100784.84
2022-09-10T12:44:01.804Z,100788.13
2022-09-10T12:46:31.321Z,100782.94
2022-09-10T12:49:01.081Z,100783.66
2022-09-10T12:52:00.553Z,100785.00
2022-09-10T12:55:28.970Z,100787.19
2022-09-10T12:58:24.361Z,100790.16
2022-09-10T13:00:53.904Z,100774.59
2022-09-10T13:03:24.256Z,100781.00
2022-09-10T13:06:02.178Z,100775.97
2022-09-10T13:08:41.892Z,100779.84
2022-09-10T13:11:22.429Z,100780.38
2022-09-10T13:13:49.825Z,100787.06
2022-09-10T13:16:38.590Z,100792.50
2022-09-10T13:19:14.266Z,100796.19
2022-09-10T13:21:41.123Z,100794.13
2022-09-10T13:24:36.168Z,100806.50
2022-09-10T13:27:34.097Z,100815.50
2022-09-10T13:30:29.787Z,100809.34
2022-09-10T13:33:07.058Z,100807.47
2022-09-10T13:36:14.676Z,100806.09
2022-09-10T13:39:20.077Z,100810.03
2022-09-10T13:42:12.460Z,100812.06
2022-09-10T13:45:16.801Z,100819.94
2022-09-10T13:48:10.713Z,100816.56
2022-09-10T13:51:10.018Z,100824.63
2022-09-10T13:53:43.853Z,100822.03
2022-09-10T13:56:25.073Z,100828.72
2022-09-10T13:59:00.544Z,100822.03
2022-09-10T14:01:49.800Z,100831.63
2022-09-10T14:04:37.928Z,100830.59
2022-09-10T14:07:22.742Z,100825.97
2022-09-10T14:09:56.708Z,100830.25
2022-09-10T14:12:29.573Z,100842.25
2022-09-10T14:15:01.530Z,100850.66
2022-09-10T14:17:45.242Z,100847.75
2022-09-10T14:20:30.243Z,100840.91
2022-09-10T14:23:03.077Z,100846.88
2022-09-10T14:25:38.669Z,100846.59
2022-09-10T14:28:27.925Z,100853.44
2022-09-10T14:31:36.816Z,100865.78
2022-09-10T14:34:36.283Z,100869.03
2022-09-10T14:37:38.427Z,100884.97
2022-09-10T14:40:25.582Z,100888.00
2022-09-10T14:42:52.468Z,100880.91
2022-09-10T14:45:49.861Z,100885.94
2022-09-10T14:49:04.585Z,100894.19
2022-09-10T14:51:31.361Z,100890.84
2022-09-10T14:53:59.156Z,100888.72
2022-09-10T14:56:37.460Z,100896.91
2022-09-10T14:59:09.705Z,100894.59
2022-09-10T15:01:36.609Z,100887.44
2022-09-10T15:04:04.354Z,100898.75
2022-09-10T15:06:31.617Z,100896.72
2022-09-10T15:08:58.480Z,100899.03
2022-09-10T15:11:28.352Z,100903.69
2022-09-10T15:13:56.162Z,100909.00
2022-09-10T15:16:23.466Z,100895.41
2022-09-10T15:18:50.316Z,100896.47
2022-09-10T15:21:17.160Z,100908.13
2022-09-10T15:23:44.481Z,100910.81
2022-09-10T15:26:14.858Z,100922.75
2022-09-10T15:28:42.386Z,100920.63
2022-09-10T15:31:10.921Z,100927.81
2022-09-10T15:33:38.124Z,100932.88
2022-09-10T15:36:05.777Z,100942.75
2022-09-10T15:38:32.605Z,100943.63
2022-09-10T15:41:17.985Z,100950.88
2022-09-10T15:43:45.975Z,100954.66
2022-09-10T15:46:16.181Z,100952.22
2022-09-10T15:48:45.076Z,100948.69
2022-09-10T15:51:21.368Z,100945.59
2022-09-10T15:53:50.987Z,100950.78
2022-09-10T15:56:20.070Z,100941.50
2022-09-10T15:58:56.145Z,100944.41
2022-09-10T16:01:25.740Z,100947.31
2022-09-10T16:03:56.306Z,100951.94
2022-09-10T16:06:27.714Z,100950.97
2022-09-10T16:08:57.745Z,100953.38
2022-09-10T16:11:25.611Z,100955.81
2022-09-10T16:13:52.762Z,100958.06
2022-09-10T16:16:23.263Z,100959.94
2022-09-10T16:18:52.245Z,100964.41
2022-09-10T16:21:26.306Z,100970.84
2022-09-10T16:23:56.890Z,100983.19
2022-09-10T16:26:28.605Z,100980.03
2022-09-10T16:28:57.632Z,100976.91
2022-09-10T16:31:31.918Z,100985.75
2022-09-10T16:34:03.364Z,100990.50
2022-09-10T16:36:33.609Z,100980.19
2022-09-10T16:39:05.197Z,100990.50
2022-09-10T16:41:33.096Z,100993.81
2022-09-10T16:44:00.661Z,100988.13
2022-09-10T16:46:28.346Z,100986.72
2022-09-10T16:48:58.499Z,100989.25
2022-09-10T16:51:29.009Z,100993.47
2022-09-10T16:54:03.818Z,100992.09
2022-09-10T16:56:45.312Z,100993.75
2022-09-10T16:59:18.510Z,101000.03
2022-09-10T17:01:48.250Z,101003.25
2022-09-10T17:04:29.161Z,101011.13
2022-09-10T17:06:57.652Z,101015.50
2022-09-10T17:09:25.034Z,101019.56
2022-09-10T17:11:53.232Z,101019.38
2022-09-10T17:14:20.064Z,101015.38
2022-09-10T17:16:48.103Z,101020.63
2022-09-10T17:19:23.445Z,101015.94
2022-09-10T17:21:55.585Z,101016.88
2022-09-10T17:24:25.848Z,101025.41
2022-09-10T17:26:55.284Z,101016.78
2022-09-10T17:29:26.213Z,101015.09
2022-09-10T17:31:55.234Z,101020.84
2022-09-10T17:34:24.284Z,101022.25
2022-09-10T17:36:52.049Z,101024.84
2022-09-10T17:39:19.015Z,101024.69
2022-09-10T17:41:46.547Z,101030.88
2022-09-10T17:44:14.564Z,101027.13
2022-09-10T17:46:42.934Z,101039.78
2022-09-10T17:49:13.898Z,101033.47
2022-09-10T17:51:41.886Z,101038.06
2022-09-10T17:54:09.031Z,101036.34
2022-09-10T17:56:38.076Z,101045.59
2022-09-10T17:59:06.122Z,101049.31
2022-09-10T18:01:38.815Z,101053.09
2022-09-10T18:04:08.038Z,101058.88
2022-09-10T18:06:36.670Z,101055.44
2022-09-10T18:09:06.089Z,101070.38
2022-09-10T18:11:39.338Z,101072.75
2022-09-10T18:14:07.153Z,101078.50
2022-09-10T18:16:36.471Z,101078.81
2022-09-10T18:19:14.300Z,101083.59
2022-09-10T18:21:43.794Z,101088.34
2022-09-10T18:24:15.484Z,101101.47
2022-09-10T18:26:46.358Z,101103.66
2022-09-10T18:29:31.672Z,101103.94
2022-09-10T18:32:03.186Z,101105.97
2022-09-10T18:34:31.253Z,101112.63
2022-09-10T18:37:01.262Z,101115.50
2022-09-10T18:39:31.731Z,101111.50
2022-09-10T18:42:01.084Z,101113.13
2022-09-10T18:44:36.427Z,101117.31
2022-09-10T18:47:05.608Z,101121.38
2022-09-10T18:49:33.516Z,101130.88
2022-09-10T18:52:00.380Z,101134.91
2022-09-10T18:54:30.527Z,101132.31
2022-09-10T18:56:58.171Z,101137.78
2022-09-10T18:59:26.076Z,101142.69
2022-09-10T19:01:55.813Z,101146.72
2022-09-10T19:04:29.544Z,101146.72
2022-09-10T19:06:58.117Z,101154.06
2022-09-10T19:09:30.711Z,101157.66
2022-09-10T19:12:02.999Z,101160.72
2022-09-10T19:14:32.394Z,101172.91
2022-09-10T19:17:01.580Z,101175.22
2022-09-10T19:19:31.789Z,101174.97
2022-09-10T19:22:07.042Z,101170.91
2022-09-10T19:24:54.099Z,101179.84
2022-09-10T19:27:22.012Z,101181.56
2022-09-10T19:29:49.873Z,101194.94
2022-09-10T19:32:17.279Z,101199.38
2022-09-10T19:34:44.348Z,101189.03
2022-09-10T19:37:11.300Z,101198.53
2022-09-10T19:39:38.321Z,101197.38
2022-09-10T19:42:06.764Z,101206.84
2022-09-10T19:44:33.848Z,101210.84
2022-09-10T19:47:01.135Z,101211.16
2022-09-10T19:49:28.030Z,101216.88
2022-09-10T19:51:55.035Z,101212.56
2022-09-10T19:54:22.721Z,101224.91
2022-09-10T19:56:49.807Z,101221.75
2022-09-10T19:59:17.030Z,101223.75
2022-09-10T20:01:45.919Z,101219.56
2022-09-10T20:04:14.196Z,101220.84
2022-09-10T20:06:46.004Z,101226.56
2022-09-10T20:09:13.103Z,101234.31
2022-09-10T20:11:40.054Z,101235.53
2022-09-10T20:14:14.505Z,101229.38
2022-09-10T20:16:45.646Z,101226.78
2022-09-10T20:19:18.184Z,101238.84
2022-09-10T20:21:47.740Z,101237.25
2022-09-10T20:24:15.813Z,101241.09
2022-09-10T20:26:43.720Z,101240.50
2022-09-10T20:29:16.536Z,101243.66
2022-09-10T20:31:45.297Z,101241.31
2022-09-10T20:34:19.714Z,101239.03
2022-09-10T20:36:50.260Z,101252.19
2022-09-10T20:39:20.922Z,101250.75
2022-09-10T20:41:48.249Z,101251.00
2022-09-10T20:44:17.532Z,101253.00
2022-09-10T20:46:44.822Z,101258.59
2022-09-10T20:49:13.955Z,101263.19
2022-09-10T20:51:40.966Z,101262.44
2022-09-10T20:54:13.892Z,101268.16
2022-09-10T20:56:41.375Z,101266.72
2022-09-10T20:59:08.802Z,101274.41
2022-09-10T21:01:35.727Z,101274.66
2022-09-10T21:04:04.020Z,101270.38
2022-09-10T21:06:34.243Z,101274.19
2022-09-10T21:09:02.657Z,101278.06
2022-09-10T21:11:34.422Z,101280.91
2022-09-10T21:14:04.880Z,101280.91
2022-09-10T21:16:41.438Z,101286.91
2022-09-10T21:19:17.338Z,101286.56
2022-09-10T21:21:48.663Z,101284.22
2022-09-10T21:24:24.856Z,101274.72
2022-09-10T21:26:53.612Z,101284.25
2022-09-10T21:29:21.630Z,101288.97
2022-09-10T21:31:54.505Z,101290.97
2022-09-10T21:34:21.400Z,101284.03
2022-09-10T21:36:48.712Z,101289.72
2022-09-10T21:39:17.653Z,101294.44
2022-09-10T21:41:50.083Z,101300.00
2022-09-10T21:44:24.961Z,101300.41
2022-09-10T21:46:52.822Z,101312.28
2022-09-10T21:49:20.416Z,101298.78
2022-09-10T21:51:47.893Z,101301.66
2022-09-10T21:54:20.491Z,101309.34
2022-09-10T21:56:49.337Z,101315.88
2022-09-10T21:59:16.659Z,101315.25
2022-09-10T22:01:46.313Z,101313.69
2022-09-10T22:04:18.843Z,101316.63
2022-09-10T22:06:47.254Z,101311.59
2022-09-10T22:09:15.853Z,101317.41
2022-09-10T22:11:50.293Z,101316.78
2022-09-10T22:14:23.899Z,101319.78
2022-09-10T22:16:51.909Z,101320.03
2022-09-10T22:19:23.604Z,101326.59
2022-09-10T22:21:51.137Z,101319.63
2022-09-10T22:24:20.566Z,101323.50
2022-09-10T22:26:47.685Z,101322.75
2022-09-10T22:29:19.793Z,101324.00
2022-09-10T22:31:48.489Z,101327.69
2022-09-10T22:34:18.174Z,101326.22
2022-09-10T22:36:46.998Z,101335.34
2022-09-10T22:39:17.796Z,101326.44
2022-09-10T22:41:46.055Z,101323.84
2022-09-10T22:44:13.639Z,101323.13
2022-09-10T22:46:41.638Z,101327.81
2022-09-10T22:49:09.962Z,101324.34
2022-09-10T22:51:40.972Z,101323.50
2022-09-10T22:54:10.577Z,101330.88
2022-09-10T22:56:37.506Z,101340.06
2022-09-10T22:59:05.533Z,101337.44
2022-09-10T23:01:36.989Z,101347.47
2022-09-10T23:04:07.130Z,101348.44
2022-09-10T23:06:37.576Z,101345.00
2022-09-10T23:09:17.662Z,101347.94
2022-09-10T23:11:45.375Z,101338.19
2022-09-10T23:14:17.750Z,101335.59
2022-09-10T23:16:51.823Z,101348.44
2022-09-10T23:19:24.595Z,101345.84
2022-09-10T23:21:54.876Z,101352.41
2022-09-10T23:24:24.642Z,101343.50
2022-09-10T23:26:51.636Z,101341.75
2022-09-10T23:29:19.496Z,101350.03
2022-09-10T23:31:47.596Z,101354.59
2022-09-10T23:34:18.884Z,101358.28
2022-09-10T23:36:48.345Z,101349.41
2022-09-10T23:39:24.364Z,101364.00
2022-09-10T23:41:56.663Z,101366.78
2022-09-10T23:44:24.656Z,101371.38
2022-09-10T23:46:52.303Z,101380.50
2022-09-10T23:49:19.557Z,101377.03
2022-09-10T23:51:46.339Z,101388.13
2022-09-10T23:54:13.394Z,101393.81
2022-09-10T23:56:40.763Z,101402.31
2022-09-10T23:59:08.648Z,101405.16
